Time;durP1;ratioP1;P1;durP2;ratioP2;P2;SDS_P1;SDS_P2;PMS_P1;PMS_P2;Temp;Humidity;BMP_temperature;BMP_pressure;BME280_temperature;BME280_humidity;BME280_pressure;Samples;Min_cycle;Max_cycle;Signal;HPM_P1;HPM_P2
2023/03/06 00:00:57;;;;;;;1.38;0.80;;;;;;;0.24;82.79;99280.31;6261606;28;20056;-74
2023/03/06 00:03:57;;;;;;;2.33;1.27;;;;;;;0.17;82.56;99286.53;6270572;28;20133;-70
2023/03/06 00:06:58;;;;;;;0.80;0.73;;;;;;;0.22;82.75;99276.97;6225015;28;20037;-70
2023/03/06 00:09:59;;;;;;;1.10;0.68;;;;;;;0.15;82.88;99285.75;6252864;28;20121;-74
2023/03/06 00:13:05;;;;;;;1.52;1.30;;;;;;;0.16;82.18;99283.13;6245716;28;20116;-70
2023/03/06 00:16:06;;;;;;;2.38;1.73;;;;;;;0.28;81.59;99286.22;6245738;27;20493;-74
2023/03/06 00:19:07;;;;;;;3.10;1.90;;;;;;;0.14;82.02;99282.31;6220636;28;20057;-74
2023/03/06 00:22:12;;;;;;;1.15;0.90;;;;;;;0.16;81.86;99288.25;6261094;28;20045;-70
2023/03/06 00:25:15;;;;;;;3.95;1.98;;;;;;;0.22;81.35;99282.09;6247282;28;20045;-70
2023/03/06 00:28:16;;;;;;;9.48;2.58;;;;;;;0.11;82.03;99281.59;6238345;28;20087;-74
2023/03/06 00:31:19;;;;;;;3.65;2.30;;;;;;;0.13;81.91;99278.09;6237440;28;20038;-74
2023/03/06 00:34:22;;;;;;;1.10;1.00;;;;;;;0.11;82.14;99269.59;6244841;28;20078;-74
2023/03/06 00:37:23;;;;;;;4.18;1.60;;;;;;;0.12;82.06;99260.19;6227427;28;20048;-70
2023/03/06 00:40:25;;;;;;;1.95;1.08;;;;;;;0.32;80.92;99262.97;6245611;28;20057;-74
2023/03/06 00:43:25;;;;;;;1.73;1.33;;;;;;;0.25;80.92;99248.66;6244768;28;20443;-74
2023/03/06 00:46:26;;;;;;;4.78;1.42;;;;;;;0.33;81.24;99262.09;6257925;28;20094;-71
2023/03/06 00:49:27;;;;;;;3.17;1.73;;;;;;;0.27;80.64;99253.72;6245807;28;20049;-74
2023/03/06 00:52:31;;;;;;;3.65;0.98;;;;;;;0.35;80.35;99257.75;6253660;28;20050;-70
2023/03/06 00:55:32;;;;;;;1.13;0.85;;;;;;;0.28;80.44;99258.81;6247443;28;20038;-71
2023/03/06 00:58:33;;;;;;;2.42;1.83;;;;;;;0.15;81.38;99258.38;6225736;28;20500;-70
2023/03/06 01:01:33;;;;;;;4.47;1.00;;;;;;;0.06;81.59;99263.75;6210081;28;20041;-74
2023/03/06 01:04:34;;;;;;;1.58;1.02;;;;;;;0.03;82.37;99256.19;6250593;28;20063;-70
2023/03/06 01:07:35;;;;;;;0.88;0.65;;;;;;;0.02;83.02;99256.22;6245631;28;20094;-74
2023/03/06 01:10:38;;;;;;;1.88;1.35;;;;;;;-0.06;83.26;99247.03;6246674;28;20377;-74
2023/03/06 01:13:39;;;;;;;1.92;1.20;;;;;;;0.01;83.28;99252.00;6228913;28;20046;-74
2023/03/06 01:16:40;;;;;;;1.02;0.93;;;;;;;-0.08;83.50;99245.41;6228006;28;20056;-73
2023/03/06 01:19:41;;;;;;;1.42;1.27;;;;;;;-0.01;83.59;99247.72;6246649;28;20049;-74
2023/03/06 01:22:42;;;;;;;1.77;1.15;;;;;;;-0.01;83.72;99246.91;6206728;28;20050;-74
2023/03/06 01:25:43;;;;;;;2.65;1.40;;;;;;;-0.15;83.80;99242.19;6206947;28;20542;-71
2023/03/06 01:28:44;;;;;;;3.35;1.05;;;;;;;-0.07;83.78;99249.66;6227232;28;20473;-71
2023/03/06 01:31:44;;;;;;;2.03;0.88;;;;;;;-0.01;82.99;99244.34;6232988;28;20049;-74
2023/03/06 01:34:45;;;;;;;3.80;1.38;;;;;;;0.03;82.79;99245.91;6228752;28;20045;-70
2023/03/06 01:37:46;;;;;;;5.80;1.23;;;;;;;-0.01;82.64;99247.72;6227687;28;20452;-70
2023/03/06 01:40:46;;;;;;;0.38;0.38;;;;;;;-0.08;83.03;99246.25;6223938;28;20129;-74
2023/03/06 01:43:50;;;;;;;0.85;0.82;;;;;;;-0.14;82.69;99246.44;6222399;28;20042;-74
2023/03/06 01:46:55;;;;;;;0.70;0.70;;;;;;;-0.16;82.42;99234.56;6227980;28;20048;-74
2023/03/06 01:49:59;;;;;;;1.20;1.10;;;;;;;-0.09;81.79;99234.31;6260081;28;20040;-70
2023/03/06 01:53:04;;;;;;;1.45;1.00;;;;;;;-0.13;81.77;99242.13;6240125;28;20049;-70
2023/03/06 01:56:05;;;;;;;2.35;1.20;;;;;;;-0.21;82.29;99245.78;6250442;28;20483;-74
2023/03/06 01:59:06;;;;;;;0.60;0.60;;;;;;;-0.17;82.49;99241.38;6254506;28;20102;-72
2023/03/06 02:02:09;;;;;;;1.80;1.45;;;;;;;-0.08;82.03;99250.56;6214105;28;20042;-74
2023/03/06 02:05:10;;;;;;;2.40;0.80;;;;;;;-0.04;81.74;99249.56;6211098;28;20439;-70
2023/03/06 02:08:15;;;;;;;2.78;1.15;;;;;;;-0.14;81.81;99249.00;6236289;28;20118;-74
2023/03/06 02:11:22;;;;;;;1.25;0.88;;;;;;;-0.09;82.47;99256.56;6233942;28;20037;-70
2023/03/06 02:14:23;;;;;;;0.95;0.80;;;;;;;-0.08;82.16;99255.69;6253235;28;20517;-70
2023/03/06 02:17:25;;;;;;;1.20;1.10;;;;;;;-0.15;82.33;99251.59;6203540;28;20052;-74
2023/03/06 02:20:42;;;;;;;2.83;0.75;;;;;;;-0.15;82.73;99246.47;6227505;28;20034;-71
2023/03/06 02:24:17;;;;;;;0.60;0.60;;;;;;;-0.19;82.34;99247.44;6226667;28;20041;-70
2023/03/06 02:27:19;;;;;;;1.23;1.10;;;;;;;-0.17;82.22;99251.66;6220050;28;20042;-70
2023/03/06 02:30:20;;;;;;;;;;;;;;;-0.26;82.99;99249.38;6217275;28;20057;-74
2023/03/06 02:33:25;;;;;;;0.77;0.63;;;;;;;-0.35;83.02;99258.19;6259980;28;19921;-74
2023/03/06 02:36:26;;;;;;;0.77;0.77;;;;;;;-0.31;83.84;99256.34;6224759;28;20130;-70
2023/03/06 02:39:32;;;;;;;1.67;1.33;;;;;;;-0.44;84.25;99248.16;6228160;28;20420;-74
2023/03/06 02:42:33;;;;;;;1.65;1.02;;;;;;;-0.36;84.62;99253.91;6268909;28;20099;-71
2023/03/06 02:45:38;;;;;;;1.00;0.90;;;;;;;-0.37;83.52;99256.50;6256927;28;20038;-70
2023/03/06 02:48:38;;;;;;;1.15;0.77;;;;;;;-0.42;84.26;99254.09;6240090;28;20043;-70
2023/03/06 02:51:40;;;;;;;2.63;1.30;;;;;;;-0.44;84.03;99256.69;6227240;28;20046;-74
2023/03/06 02:54:41;;;;;;;1.05;0.98;;;;;;;-0.36;83.36;99263.34;6249621;28;20090;-74
2023/03/06 02:57:42;;;;;;;4.60;0.82;;;;;;;-0.39;83.72;99263.41;6269497;28;20040;-74
2023/03/06 03:00:43;;;;;;;1.45;0.88;;;;;;;-0.41;84.06;99266.88;6267435;28;20116;-74
2023/03/06 03:03:43;;;;;;;4.93;2.20;;;;;;;-0.33;84.01;99263.22;6250523;28;20041;-70
2023/03/06 03:06:46;;;;;;;1.30;0.85;;;;;;;-0.35;83.60;99271.00;6242322;28;20132;-74
2023/03/06 03:09:47;;;;;;;1.83;1.27;;;;;;;-0.36;83.54;99271.84;6259110;28;20049;-71
2023/03/06 03:12:48;;;;;;;3.17;1.42;;;;;;;-0.35;83.12;99265.88;6217755;28;20390;-74
2023/03/06 03:15:58;;;;;;;1.35;1.00;;;;;;;-0.41;83.11;99269.44;6230840;28;20089;-71
2023/03/06 03:18:59;;;;;;;1.08;0.90;;;;;;;-0.39;82.74;99264.28;6235723;28;20053;-70
2023/03/06 03:22:00;;;;;;;0.98;0.90;;;;;;;-0.45;83.61;99265.28;6243050;28;20459;-71
2023/03/06 03:25:06;;;;;;;1.23;1.05;;;;;;;-0.54;84.16;99255.28;6226182;28;20386;-74
2023/03/06 03:28:07;;;;;;;4.07;1.45;;;;;;;-0.47;82.78;99261.09;6243526;28;20504;-70
2023/03/06 03:31:09;;;;;;;1.08;0.98;;;;;;;-0.55;83.66;99253.63;6225209;28;20045;-74
2023/03/06 03:34:10;;;;;;;1.48;1.08;;;;;;;-0.54;84.06;99257.00;6205421;28;20046;-70
2023/03/06 03:37:11;;;;;;;0.45;0.45;;;;;;;-0.46;83.77;99255.06;6219560;28;20489;-70
2023/03/06 03:40:12;;;;;;;2.03;0.77;;;;;;;-0.52;84.65;99258.63;6209057;28;20054;-74
2023/03/06 03:43:13;;;;;;;3.58;1.02;;;;;;;-0.55;84.04;99251.06;6223072;28;20045;-70
2023/03/06 03:46:13;;;;;;;3.78;1.60;;;;;;;-0.52;84.38;99257.81;6242687;28;20049;-74
2023/03/06 03:49:14;;;;;;;2.67;1.35;;;;;;;-0.44;83.79;99255.84;6243291;28;20046;-70
2023/03/06 03:52:15;;;;;;;0.38;0.38;;;;;;;-0.52;84.31;99252.69;6232183;28;20086;-74
2023/03/06 03:55:16;;;;;;;1.23;0.75;;;;;;;-0.54;83.68;99257.84;6240465;28;20046;-74
2023/03/06 03:58:19;;;;;;;0.63;0.63;;;;;;;-0.57;84.20;99249.41;6224748;28;20041;-71
2023/03/06 04:01:19;;;;;;;0.68;0.68;;;;;;;-0.51;83.99;99255.19;6237023;28;20050;-70
2023/03/06 04:04:21;;;;;;;1.10;0.63;;;;;;;-0.52;84.25;99245.00;6201364;28;20049;-74
2023/03/06 04:07:21;;;;;;;1.45;0.80;;;;;;;-0.50;84.13;99253.47;6246360;28;20446;-74
2023/03/06 04:10:22;;;;;;;0.65;0.65;;;;;;;-0.56;84.23;99254.47;6250812;28;20048;-71
2023/03/06 04:13:26;;;;;;;4.97;1.45;;;;;;;-0.70;84.27;99242.06;6254349;28;20045;-74
2023/03/06 04:16:27;;;;;;;2.10;1.45;;;;;;;-0.69;84.10;99237.78;6259746;28;20034;-70
2023/03/06 04:19:28;;;;;;;1.23;1.17;;;;;;;-0.71;84.19;99248.06;6210803;28;20398;-70
2023/03/06 04:22:29;;;;;;;1.40;0.70;;;;;;;-0.76;85.29;99244.81;6205333;28;20106;-74
2023/03/06 04:25:30;;;;;;;2.17;1.38;;;;;;;-0.76;85.23;99236.25;6241410;28;20052;-74
2023/03/06 04:28:31;;;;;;;3.22;2.03;;;;;;;-0.74;85.25;99234.50;6271937;28;20048;-74
2023/03/06 04:31:31;;;;;;;2.65;1.25;;;;;;;-0.70;85.46;99236.09;6249146;28;20041;-74
2023/03/06 04:34:32;;;;;;;1.23;1.10;;;;;;;-0.67;84.85;99230.91;6244541;28;20040;-70
2023/03/06 04:37:35;;;;;;;1.55;1.17;;;;;;;-0.69;84.93;99230.09;6229000;28;20489;-74
2023/03/06 04:40:36;;;;;;;1.15;1.05;;;;;;;-0.67;84.53;99223.22;6227567;28;20049;-74
2023/03/06 04:43:38;;;;;;;1.48;1.13;;;;;;;-0.67;84.44;99221.47;6213796;28;20134;-70
2023/03/06 04:46:39;;;;;;;0.57;0.57;;;;;;;-0.61;84.66;99229.00;6215173;28;20034;-70
2023/03/06 04:49:39;;;;;;;2.28;1.45;;;;;;;-0.66;84.46;99220.63;6242794;28;20041;-71
2023/03/06 04:52:40;;;;;;;1.50;1.40;;;;;;;-0.67;84.50;99228.34;6249210;28;20535;-70
2023/03/06 04:55:41;;;;;;;1.30;1.10;;;;;;;-0.68;85.31;99226.63;6246429;28;20042;-74
2023/03/06 04:58:43;;;;;;;1.92;0.93;;;;;;;-0.61;84.91;99229.00;6236974;28;20041;-74
2023/03/06 05:01:44;;;;;;;0.85;0.63;;;;;;;-0.64;84.97;99234.22;6222340;28;20046;-70
2023/03/06 05:04:47;;;;;;;1.50;0.70;;;;;;;-0.55;85.39;99234.84;6230627;28;20377;-74
2023/03/06 05:07:48;;;;;;;1.73;1.20;;;;;;;-0.52;85.30;99237.31;6236835;28;20049;-74
2023/03/06 05:10:58;;;;;;;0.77;0.68;;;;;;;-0.42;84.90;99252.38;6250149;28;20041;-70
2023/03/06 05:13:59;;;;;;;1.38;1.10;;;;;;;-0.42;85.54;99244.66;6228358;28;20054;-70
2023/03/06 05:17:02;;;;;;;0.88;0.55;;;;;;;-0.34;85.32;99247.03;6231992;28;20053;-74
2023/03/06 05:20:06;;;;;;;1.15;0.95;;;;;;;-0.37;85.21;99236.88;6243271;28;20485;-74
2023/03/06 05:23:07;;;;;;;0.65;0.57;;;;;;;-0.32;86.01;99249.53;6236993;28;20661;-71
2023/03/06 05:26:12;;;;;;;0.85;0.80;;;;;;;-0.24;86.25;99248.44;6228809;28;20123;-71
2023/03/06 05:29:12;;;;;;;2.45;1.17;;;;;;;-0.11;85.76;99256.59;6244883;28;20049;-71
2023/03/06 05:32:15;;;;;;;1.10;0.93;;;;;;;-0.12;85.65;99243.84;6244382;28;20053;-74
2023/03/06 05:35:18;;;;;;;1.30;1.20;;;;;;;-0.07;85.44;99247.91;6245197;27;20037;-70
2023/03/06 05:38:19;;;;;;;1.17;1.08;;;;;;;-0.12;85.50;99243.84;6214809;28;20054;-70
2023/03/06 05:41:20;;;;;;;1.42;1.13;;;;;;;-0.04;85.34;99239.31;6235013;28;20053;-70
2023/03/06 05:44:22;;;;;;;2.97;1.25;;;;;;;-0.03;84.96;99249.50;6237771;28;20041;-74
2023/03/06 05:47:23;;;;;;;;;;;;;;;0.05;85.29;99243.31;6204494;28;20430;-74
2023/03/06 05:50:24;;;;;;;1.23;0.98;;;;;;;0.08;84.56;99240.63;6203082;28;19929;-70
2023/03/06 05:53:25;;;;;;;1.48;0.90;;;;;;;0.08;84.45;99246.59;6222014;28;20079;-74
2023/03/06 05:56:26;;;;;;;3.70;1.90;;;;;;;0.08;84.61;99248.34;6245212;28;20098;-70
2023/03/06 05:59:27;;;;;;;1.38;1.17;;;;;;;0.15;84.37;99248.09;6241890;28;20041;-74
2023/03/06 06:02:28;;;;;;;0.70;0.70;;;;;;;0.22;84.34;99251.31;6230182;28;20079;-74
2023/03/06 06:05:29;;;;;;;2.60;1.60;;;;;;;0.20;84.05;99255.66;6246700;28;20091;-74
2023/03/06 06:08:30;;;;;;;1.17;1.08;;;;;;;0.23;84.69;99259.84;6230096;28;20045;-74
2023/03/06 06:11:30;;;;;;;1.73;1.02;;;;;;;0.32;84.99;99262.13;6227987;28;20090;-74
2023/03/06 06:14:34;;;;;;;2.80;1.40;;;;;;;0.35;84.87;99267.16;6245530;28;20114;-74
2023/03/06 06:17:35;;;;;;;4.05;1.65;;;;;;;0.39;84.92;99261.03;6244514;28;20534;-71
2023/03/06 06:20:37;;;;;;;13.23;1.35;;;;;;;0.44;85.38;99272.00;6226706;28;20046;-71
2023/03/06 06:23:38;;;;;;;1.25;0.70;;;;;;;0.53;85.08;99268.28;6227751;28;20485;-74
2023/03/06 06:26:39;;;;;;;5.53;1.17;;;;;;;0.68;84.29;99265.25;6245423;28;20042;-74
2023/03/06 06:29:40;;;;;;;2.28;1.02;;;;;;;0.75;84.34;99273.56;6244330;28;20073;-74
2023/03/06 06:32:40;;;;;;;0.70;0.65;;;;;;;0.92;84.29;99275.56;6244647;28;20489;-70
2023/03/06 06:35:41;;;;;;;2.30;0.95;;;;;;;0.92;84.70;99278.13;6244896;28;20037;-73
2023/03/06 06:38:42;;;;;;;2.47;1.52;;;;;;;0.89;84.91;99273.94;6244593;28;20102;-70
2023/03/06 06:41:46;;;;;;;2.88;1.42;;;;;;;0.96;84.97;99270.25;6242958;28;20041;-70
2023/03/06 06:44:47;;;;;;;1.40;0.85;;;;;;;1.08;83.94;99271.59;6242983;28;20481;-70
2023/03/06 06:47:49;;;;;;;1.17;0.98;;;;;;;1.18;83.63;99285.78;6242907;28;20055;-70
2023/03/06 06:50:57;;;;;;;0.80;0.75;;;;;;;1.15;83.53;99282.47;6226932;28;20117;-74
2023/03/06 06:53:59;;;;;;;1.50;1.02;;;;;;;1.13;84.00;99276.56;6227333;28;20450;-74
2023/03/06 06:57:00;;;;;;;2.17;0.75;;;;;;;1.32;83.35;99284.44;6227356;28;20125;-74
2023/03/06 07:00:03;;;;;;;1.23;0.93;;;;;;;1.26;83.92;99290.66;6244759;28;20522;-75
2023/03/06 07:03:04;;;;;;;2.08;1.27;;;;;;;1.39;83.73;99289.34;6243730;28;20125;-74
2023/03/06 07:06:06;;;;;;;1.65;1.13;;;;;;;1.41;83.57;99292.69;6244500;28;20093;-74
2023/03/06 07:09:07;;;;;;;1.37;1.10;;;;;;;1.52;83.70;99292.28;6243527;28;20416;-70
2023/03/06 07:12:08;;;;;;;2.05;1.40;;;;;;;1.57;83.95;99295.56;6243375;28;20098;-70
2023/03/06 07:15:12;;;;;;;1.90;1.50;;;;;;;1.60;83.97;99289.44;6224801;28;20497;-71
2023/03/06 07:18:13;;;;;;;1.33;1.05;;;;;;;1.71;83.57;99295.06;6243365;28;20098;-71
2023/03/06 07:21:14;;;;;;;2.53;1.80;;;;;;;1.89;82.81;99297.81;6225280;28;20042;-74
2023/03/06 07:24:18;;;;;;;5.28;1.58;;;;;;;1.91;82.34;99298.63;6244130;28;20082;-75
2023/03/06 07:27:18;;;;;;;3.35;1.52;;;;;;;1.95;82.33;99298.44;6225512;28;20038;-71
2023/03/06 07:30:22;;;;;;;1.83;1.55;;;;;;;1.99;82.31;99299.16;6224639;28;20478;-71
2023/03/06 07:33:23;;;;;;;2.70;1.33;;;;;;;2.28;81.17;99308.34;6224855;28;20480;-74
2023/03/06 07:36:24;;;;;;;2.25;1.60;;;;;;;2.39;80.79;99310.50;6231106;28;20076;-75
2023/03/06 07:39:26;;;;;;;1.90;1.55;;;;;;;2.45;80.15;99306.84;6206243;28;20421;-72
2023/03/06 07:42:30;;;;;;;3.35;1.67;;;;;;;2.50;79.89;99310.09;6216592;28;20402;-72
2023/03/06 07:45:31;;;;;;;5.22;2.22;;;;;;;2.56;80.32;99309.84;6218283;28;20052;-71
2023/03/06 07:48:35;;;;;;;3.33;1.90;;;;;;;2.83;79.67;99316.44;6221981;28;20486;-71
2023/03/06 07:51:36;;;;;;;2.90;1.90;;;;;;;2.97;79.42;99313.28;6204278;28;20045;-71
2023/03/06 07:54:37;;;;;;;2.72;1.83;;;;;;;3.10;79.43;99316.19;6205571;28;20042;-75
2023/03/06 07:57:38;;;;;;;3.47;2.22;;;;;;;3.09;79.16;99319.69;6222738;28;20042;-72
2023/03/06 08:00:39;;;;;;;3.40;1.52;;;;;;;3.22;78.81;99313.09;6222611;28;20038;-74
2023/03/06 08:03:40;;;;;;;3.38;1.88;;;;;;;3.39;76.81;99309.78;6223403;28;20425;-75
2023/03/06 08:06:44;;;;;;;1.40;0.88;;;;;;;3.60;76.14;99320.06;6221720;28;20041;-73
2023/03/06 08:09:47;;;;;;;1.48;1.30;;;;;;;3.64;74.66;99321.63;6203968;28;20053;-71
2023/03/06 08:12:48;;;;;;;1.88;1.17;;;;;;;3.83;72.64;99317.31;6221579;28;20086;-71
2023/03/06 08:15:49;;;;;;;11.10;2.10;;;;;;;3.98;71.63;99327.84;6204796;28;20042;-71
2023/03/06 08:18:50;;;;;;;1.45;0.93;;;;;;;4.07;70.40;99331.75;6221847;28;20046;-74
2023/03/06 08:21:51;;;;;;;1.48;1.38;;;;;;;4.20;69.33;99325.97;6204854;28;20061;-75
2023/03/06 08:24:57;;;;;;;2.67;1.55;;;;;;;4.18;68.62;99322.63;6205735;28;20050;-75
2023/03/06 08:27:58;;;;;;;3.28;1.90;;;;;;;4.35;68.66;99323.56;6204364;28;20037;-71
2023/03/06 08:31:11;;;;;;;2.95;1.80;;;;;;;4.47;68.23;99323.00;6203682;28;20046;-71
2023/03/06 08:34:17;;;;;;;1.88;0.90;;;;;;;4.61;67.12;99324.91;6220824;28;20600;-71
2023/03/06 08:37:18;;;;;;;0.65;0.57;;;;;;;4.79;65.44;99321.44;6203614;28;20095;-71
2023/03/06 08:40:19;;;;;;;7.63;1.13;;;;;;;4.63;64.48;99323.94;6220799;28;20057;-71
2023/03/06 08:43:20;;;;;;;4.43;2.35;;;;;;;4.74;64.25;99332.94;6203422;28;20639;-71
2023/03/06 08:46:23;;;;;;;2.28;1.95;;;;;;;4.51;64.09;99327.13;6221340;28;20090;-74
2023/03/06 08:49:23;;;;;;;2.13;1.85;;;;;;;4.51;62.83;99334.00;6203263;28;20497;-74
2023/03/06 08:52:24;;;;;;;3.42;1.10;;;;;;;4.53;63.27;99339.94;6204223;28;20042;-74
2023/03/06 08:55:26;;;;;;;2.22;1.48;;;;;;;4.49;63.65;99333.25;6203290;28;20042;-72
2023/03/06 08:58:27;;;;;;;;;;;;;;;4.59;64.41;99339.63;6221813;28;20045;-71
2023/03/06 09:01:33;;;;;;;0.98;0.80;;;;;;;4.63;63.76;99344.63;6203325;28;19932;-71
2023/03/06 09:04:34;;;;;;;2.50;1.30;;;;;;;4.78;63.78;99340.44;6204360;28;20049;-75
2023/03/06 09:07:35;;;;;;;7.88;2.08;;;;;;;4.63;63.29;99341.16;6204648;28;20098;-75
2023/03/06 09:10:36;;;;;;;1.00;0.75;;;;;;;4.77;62.57;99358.59;6203571;28;20042;-71
2023/03/06 09:13:39;;;;;;;7.07;2.30;;;;;;;4.67;62.34;99357.38;6221911;28;20038;-74
2023/03/06 09:16:39;;;;;;;1.98;1.20;;;;;;;4.70;62.62;99354.66;6204194;28;20045;-71
2023/03/06 09:19:40;;;;;;;4.13;1.20;;;;;;;4.55;61.81;99344.16;6220056;28;20057;-71
2023/03/06 09:22:41;;;;;;;3.03;1.90;;;;;;;4.72;61.26;99355.41;6221616;28;20042;-72
2023/03/06 09:25:42;;;;;;;2.40;1.30;;;;;;;4.81;61.14;99353.22;6219888;28;20046;-71
2023/03/06 09:28:43;;;;;;;2.38;1.15;;;;;;;4.78;61.30;99348.19;6220701;28;20045;-75
2023/03/06 09:31:44;;;;;;;1.65;1.17;;;;;;;4.67;61.11;99354.78;6204198;28;20041;-75
2023/03/06 09:34:45;;;;;;;0.93;0.80;;;;;;;4.63;60.41;99349.78;6204278;28;20049;-75
2023/03/06 09:37:46;;;;;;;1.60;1.20;;;;;;;4.80;60.38;99353.31;6221121;28;20393;-72
2023/03/06 09:41:28;;;;;;;6.78;1.67;;;;;;;4.79;60.40;99352.44;6219850;28;20151;-71
2023/03/06 09:44:32;;;;;;;2.05;1.33;;;;;;;4.81;59.72;99352.38;6219928;28;20046;-71
2023/03/06 09:48:03;;;;;;;2.45;1.70;;;;;;;4.91;59.85;99353.59;6219749;28;20048;-75
2023/03/06 09:51:16;;;;;;;2.05;1.60;;;;;;;4.94;60.32;99353.47;6203206;28;20069;-75
2023/03/06 09:54:29;;;;;;;9.85;3.50;;;;;;;5.28;59.47;99350.97;6202608;28;20065;-72
2023/03/06 09:57:35;;;;;;;4.63;1.85;;;;;;;5.41;59.92;99349.41;6219739;28;20386;-75
2023/03/06 10:00:42;;;;;;;3.47;1.75;;;;;;;5.49;59.85;99354.19;6203420;28;20046;-75
2023/03/06 10:03:43;;;;;;;5.15;2.58;;;;;;;5.57;58.64;99350.28;6219455;28;20042;-74
2023/03/06 10:06:47;;;;;;;4.93;2.08;;;;;;;5.46;58.53;99357.78;6203383;28;20049;-71
2023/03/06 10:09:57;;;;;;;3.25;1.45;;;;;;;5.41;58.58;99349.41;6219190;28;20089;-75
2023/03/06 10:13:03;;;;;;;5.22;1.95;;;;;;;5.37;59.26;99356.47;6203354;28;20038;-72
2023/03/06 10:16:36;;;;;;;4.32;1.63;;;;;;;5.75;58.68;99348.50;6202025;28;20053;-71
2023/03/06 10:19:41;;;;;;;3.03;1.63;;;;;;;5.98;57.65;99346.50;6228992;28;20058;-75
2023/03/06 10:23:02;;;;;;;4.13;1.70;;;;;;;5.78;57.93;99350.94;6203321;28;20042;-72
2023/03/06 10:26:17;;;;;;;1.55;0.90;;;;;;;5.81;56.83;99347.38;6201353;28;20045;-72
2023/03/06 10:29:30;;;;;;;2.65;1.50;;;;;;;5.90;57.39;99343.44;6218755;28;20117;-71
2023/03/06 10:33:08;;;;;;;1.65;1.42;;;;;;;5.78;56.52;99337.97;6203094;28;20120;-75
2023/03/06 10:36:14;;;;;;;3.30;1.90;;;;;;;5.93;57.52;99344.13;6203229;28;20064;-75
2023/03/06 10:39:20;;;;;;;8.60;1.95;;;;;;;5.96;56.86;99337.97;6220002;28;20498;-71
2023/03/06 10:42:22;;;;;;;3.75;1.75;;;;;;;5.92;56.63;99337.25;6202159;28;20129;-71
2023/03/06 10:45:23;;;;;;;5.65;1.98;;;;;;;6.05;57.38;99338.31;6219610;28;20391;-75
2023/03/06 10:48:26;;;;;;;3.80;1.52;;;;;;;6.21;57.23;99334.88;6202209;28;20120;-71
2023/03/06 10:51:29;;;;;;;3.97;1.92;;;;;;;6.24;56.52;99342.50;6201257;28;20175;-75
2023/03/06 10:54:34;;;;;;;3.88;1.33;;;;;;;6.03;56.57;99337.56;6218970;28;20046;-71
2023/03/06 10:57:34;;;;;;;7.32;3.25;;;;;;;6.07;55.52;99335.63;6201775;28;20093;-72
2023/03/06 11:00:35;;;;;;;44.17;15.35;;;;;;;6.06;56.10;99331.38;6219869;28;20494;-75
2023/03/06 11:03:36;;;;;;;15.27;5.97;;;;;;;6.15;56.90;99336.06;6201760;28;20042;-75
2023/03/06 11:06:40;;;;;;;4.38;1.90;;;;;;;5.80;57.34;99328.38;6219913;28;20042;-75
2023/03/06 11:10:01;;;;;;;2.65;1.63;;;;;;;5.90;57.52;99317.56;6219195;28;20045;-75
2023/03/06 11:13:15;;;;;;;3.30;1.73;;;;;;;6.04;56.69;99317.69;6200948;28;20049;-71
2023/03/06 11:16:29;;;;;;;3.13;1.45;;;;;;;5.82;57.62;99313.59;6219771;28;20069;-75
2023/03/06 11:19:31;;;;;;;5.18;2.00;;;;;;;5.70;57.37;99303.91;6201766;28;20105;-72
2023/03/06 11:22:38;;;;;;;6.68;1.88;;;;;;;5.90;56.02;99302.00;6222395;28;20049;-71
2023/03/06 11:25:49;;;;;;;2.85;1.48;;;;;;;6.31;56.03;99298.97;6204823;28;20098;-71
2023/03/06 11:29:14;;;;;;;3.80;2.00;;;;;;;6.36;55.89;99307.28;6223501;28;20042;-75
2023/03/06 11:32:22;;;;;;;5.65;2.53;;;;;;;6.17;55.44;99300.53;6223452;28;20076;-75
2023/03/06 11:35:34;;;;;;;1.88;1.40;;;;;;;6.46;55.68;99298.09;6205696;28;20050;-75
2023/03/06 11:38:52;;;;;;;1.92;1.70;;;;;;;6.41;54.96;99294.94;6205365;28;20061;-75
2023/03/06 11:42:08;;;;;;;7.07;3.08;;;;;;;6.51;55.24;99295.25;6204665;28;20050;-71
2023/03/06 11:45:24;;;;;;;8.32;2.80;;;;;;;6.51;55.17;99284.91;6222743;28;20053;-71
2023/03/06 11:48:41;;;;;;;5.82;2.90;;;;;;;6.60;55.53;99285.19;6222194;28;20064;-75
2023/03/06 11:51:48;;;;;;;3.72;2.00;;;;;;;6.73;54.71;99287.91;6222160;28;20102;-71
2023/03/06 11:54:54;;;;;;;4.45;2.33;;;;;;;6.66;54.94;99281.41;6204360;28;20069;-72
2023/03/06 11:58:20;;;;;;;2.63;2.17;;;;;;;6.90;54.99;99271.41;6222240;28;20046;-75
2023/03/06 12:01:49;;;;;;;4.32;2.63;;;;;;;6.99;53.69;99260.47;6205920;28;20421;-75
2023/03/06 12:05:24;;;;;;;6.22;3.05;;;;;;;7.04;52.90;99257.59;6204205;28;20471;-75
2023/03/06 12:09:03;;;;;;;6.70;1.75;;;;;;;6.65;53.24;99261.59;6224341;28;20050;-75
2023/03/06 12:12:28;;;;;;;3.22;1.88;;;;;;;6.67;53.27;99244.19;6254512;28;20085;-71
2023/03/06 12:15:57;;;;;;;3.85;2.13;;;;;;;6.76;53.47;99245.44;6246028;28;20046;-72
2023/03/06 12:19:24;;;;;;;3.28;1.33;;;;;;;7.04;52.97;99226.47;6247172;28;20485;-75
2023/03/06 12:22:25;;;;;;;4.30;2.15;;;;;;;7.71;52.07;99229.31;6235709;28;20080;-75
2023/03/06 12:25:38;;;;;;;3.30;1.88;;;;;;;8.08;49.50;99211.41;6229772;28;20045;-75
2023/03/06 12:28:38;;;;;;;5.63;1.70;;;;;;;8.07;51.12;99208.00;6316738;27;20042;-75
2023/03/06 12:31:51;;;;;;;8.82;2.45;;;;;;;7.99;50.13;99199.88;6237784;28;20408;-71
2023/03/06 12:35:21;;;;;;;4.13;2.13;;;;;;;8.36;50.22;99200.09;6270155;28;20044;-71
2023/03/06 12:38:40;;;;;;;3.08;1.58;;;;;;;8.50;49.08;99201.78;6221621;28;20548;-71
2023/03/06 12:42:19;;;;;;;2.97;1.90;;;;;;;8.43;48.63;99193.56;6221640;28;20045;-75
2023/03/06 12:45:31;;;;;;;2.45;1.80;;;;;;;8.34;49.31;99190.69;6234879;28;20053;-75
2023/03/06 12:48:37;;;;;;;2.53;1.55;;;;;;;7.95;48.07;99184.53;6245891;28;20382;-72
2023/03/06 12:51:39;;;;;;;2.70;1.83;;;;;;;7.79;48.67;99180.34;6313711;28;20073;-71
2023/03/06 12:54:40;;;;;;;2.20;1.88;;;;;;;7.83;48.97;99181.00;6313898;28;20037;-73
2023/03/06 12:57:46;;;;;;;4.37;1.23;;;;;;;7.90;48.83;99177.06;6313723;28;20421;-71
2023/03/06 13:01:30;;;;;;;2.17;1.52;;;;;;;7.91;49.70;99176.13;6245748;28;20520;-70
2023/03/06 13:04:43;;;;;;;2.88;1.58;;;;;;;7.77;47.76;99171.00;6253031;28;20128;-74
2023/03/06 13:07:59;;;;;;;3.72;1.77;;;;;;;7.87;49.11;99172.91;6252436;28;20045;-70
2023/03/06 13:11:32;;;;;;;3.08;2.15;;;;;;;7.74;48.78;99163.38;6270173;28;20400;-70
2023/03/06 13:14:33;;;;;;;4.45;1.95;;;;;;;7.71;48.75;99172.19;6270861;28;20044;-74
2023/03/06 13:17:35;;;;;;;3.10;1.60;;;;;;;7.71;49.35;99167.00;6269538;28;20041;-69
2023/03/06 13:20:45;;;;;;;;;;;;;;;7.47;49.44;99165.03;6252758;28;20036;-74
2023/03/06 13:23:50;;;;;;;1.95;1.67;;;;;;;7.28;50.04;99156.72;6252215;28;19952;-70
2023/03/06 13:27:04;;;;;;;3.03;1.70;;;;;;;7.15;50.39;99151.44;6251661;28;20041;-69
2023/03/06 13:30:26;;;;;;;6.85;2.55;;;;;;;7.09;50.50;99140.63;6269582;28;20512;-70
2023/03/06 13:33:28;;;;;;;5.22;2.15;;;;;;;7.28;51.11;99138.53;6252719;28;20090;-75
2023/03/06 13:36:31;;;;;;;6.63;2.53;;;;;;;7.39;52.12;99130.94;6313603;28;20553;-75
2023/03/06 13:39:54;;;;;;;3.92;2.33;;;;;;;7.49;51.96;99128.56;6347757;28;20116;-70
2023/03/06 13:43:20;;;;;;;4.90;2.80;;;;;;;7.58;51.40;99115.03;6347566;28;20043;-75
2023/03/06 13:46:29;;;;;;;3.03;1.92;;;;;;;7.49;50.56;99110.41;6349431;28;20445;-74
2023/03/06 13:49:31;;;;;;;5.68;2.60;;;;;;;7.49;50.20;99110.41;6347141;28;20442;-71
2023/03/06 13:53:02;;;;;;;4.30;2.38;;;;;;;7.59;50.48;99103.69;6347904;28;20044;-71
2023/03/06 13:56:27;;;;;;;2.65;1.60;;;;;;;7.37;50.77;99106.00;6349281;28;20498;-74
2023/03/06 13:59:48;;;;;;;5.93;2.20;;;;;;;7.64;51.69;99098.25;6347429;28;20384;-74
2023/03/06 14:02:53;;;;;;;7.90;3.22;;;;;;;7.75;50.82;99095.78;6347561;28;20479;-74
2023/03/06 14:05:54;;;;;;;7.43;4.80;;;;;;;7.51;51.73;99089.56;6348949;28;20035;-74
2023/03/06 14:08:55;;;;;;;2.92;2.05;;;;;;;7.47;51.13;99084.56;6347507;28;20090;-70
2023/03/06 14:12:01;;;;;;;8.70;4.47;;;;;;;7.55;51.56;99081.47;6347382;28;20043;-75
2023/03/06 14:15:39;;;;;;;11.25;3.97;;;;;;;7.74;52.12;99080.28;6348520;28;20488;-74
2023/03/06 14:18:45;;;;;;;6.68;2.30;;;;;;;7.56;51.48;99077.13;6346988;28;20512;-74
2023/03/06 14:21:54;;;;;;;4.55;3.17;;;;;;;7.47;52.66;99071.59;6348707;28;20123;-75
2023/03/06 14:25:06;;;;;;;8.02;3.22;;;;;;;7.49;51.36;99068.88;6347457;28;20488;-74
2023/03/06 14:28:29;;;;;;;7.90;3.35;;;;;;;7.57;52.77;99061.44;6347728;28;20032;-70
2023/03/06 14:31:31;;;;;;;5.00;2.72;;;;;;;7.30;51.77;99060.59;6348503;28;20036;-74
2023/03/06 14:34:38;;;;;;;20.42;9.63;;;;;;;7.26;51.69;99047.00;6347265;28;20111;-74
2023/03/06 14:37:39;;;;;;;8.45;4.45;;;;;;;7.33;52.41;99052.63;6273690;28;20048;-74
2023/03/06 14:40:43;;;;;;;8.15;4.32;;;;;;;7.39;52.92;99060.88;6251442;28;20049;-70